Time;durP1;ratioP1;P1;durP2;ratioP2;P2;SDS_P1;SDS_P2;PMS_P1;PMS_P2;Temp;Humidity;BMP_temperature;BMP_pressure;BME280_temperature;BME280_humidity;BME280_pressure;Samples;Min_cycle;Max_cycle;Signal;HPM_P1;HPM_P2
2021/10/01 00:00:22;;;;;;;0.45;0.45;;;9.90;99.90;;;;;;4401171;32;20070;-65
2021/10/01 00:02:47;;;;;;;0.25;0.25;;;9.90;99.90;;;;;;4400799;32;20233;-64
2021/10/01 00:05:13;;;;;;;0.65;0.65;;;9.80;99.90;;;;;;4399933;32;20412;-65
2021/10/01 00:07:38;;;;;;;0.32;0.32;;;9.80;99.90;;;;;;4401321;32;20073;-64
2021/10/01 00:10:05;;;;;;;0.30;0.30;;;9.80;99.90;;;;;;4414174;32;20177;-64
2021/10/01 00:12:30;;;;;;;0.25;0.25;;;9.90;99.90;;;;;;4414985;32;20073;-65
2021/10/01 00:14:56;;;;;;;0.30;0.30;;;9.80;99.90;;;;;;4415693;32;20069;-65
2021/10/01 00:17:22;;;;;;;0.30;0.30;;;9.90;99.90;;;;;;4415742;32;20082;-65
2021/10/01 00:19:48;;;;;;;1.02;0.65;;;9.80;99.90;;;;;;4401822;32;20065;-65
2021/10/01 00:22:14;;;;;;;0.30;0.30;;;9.90;99.90;;;;;;4415838;32;20128;-65
2021/10/01 00:24:39;;;;;;;0.20;0.20;;;10.00;99.90;;;;;;4416025;32;20081;-65
2021/10/01 00:27:09;;;;;;;0.30;0.30;;;10.00;99.90;;;;;;4414389;32;20070;-65
2021/10/01 00:29:35;;;;;;;0.20;0.20;;;10.00;99.90;;;;;;4401997;32;20119;-65
2021/10/01 00:32:01;;;;;;;0.30;0.30;;;10.00;99.90;;;;;;4415293;32;20124;-65
2021/10/01 00:34:26;;;;;;;0.20;0.20;;;10.00;99.90;;;;;;4415380;32;20085;-65
2021/10/01 00:36:52;;;;;;;0.35;0.35;;;10.00;99.90;;;;;;4407018;32;20082;-65
2021/10/01 00:39:17;;;;;;;0.30;0.30;;;10.00;99.90;;;;;;4400127;32;20066;-65
2021/10/01 00:41:43;;;;;;;0.20;0.20;;;10.00;99.90;;;;;;4400085;32;20061;-65
2021/10/01 00:44:08;;;;;;;0.20;0.20;;;10.10;99.90;;;;;;4399406;32;20075;-65
2021/10/01 00:46:34;;;;;;;0.30;0.30;;;10.10;99.90;;;;;;4400397;32;20097;-65
2021/10/01 00:49:00;;;;;;;0.28;0.28;;;10.10;99.90;;;;;;4400429;32;20138;-65
2021/10/01 00:51:27;;;;;;;0.30;0.30;;;10.20;99.90;;;;;;4386423;32;20066;-65
2021/10/01 00:53:54;;;;;;;0.52;0.50;;;10.30;99.90;;;;;;4387148;32;20062;-65
2021/10/01 00:56:20;;;;;;;0.30;0.30;;;10.30;99.90;;;;;;4373213;32;20121;-65
2021/10/01 00:58:46;;;;;;;0.30;0.30;;;10.20;99.90;;;;;;4399627;32;20400;-65
2021/10/01 01:01:12;;;;;;;0.68;0.68;;;10.10;99.90;;;;;;4386808;32;20079;-65
2021/10/01 01:03:44;;;;;;;0.20;0.20;;;10.10;99.90;;;;;;4399798;32;20074;-65
2021/10/01 01:06:23;;;;;;;1.27;0.68;;;10.00;99.90;;;;;;4398864;32;20065;-65
2021/10/01 01:09:14;;;;;;;0.52;0.52;;;10.00;99.90;;;;;;4407300;32;20119;-65
2021/10/01 01:11:53;;;;;;;0.32;0.32;;;9.80;99.90;;;;;;4414020;32;20074;-65
2021/10/01 01:14:24;;;;;;;0.35;0.35;;;9.80;99.90;;;;;;4414822;32;20507;-65
2021/10/01 01:16:51;;;;;;;0.20;0.20;;;9.80;99.90;;;;;;4415440;32;20798;-65
2021/10/01 01:19:28;;;;;;;6.12;1.30;;;9.80;99.90;;;;;;4414119;32;20073;-65
2021/10/01 01:22:12;;;;;;;0.40;0.40;;;9.70;99.90;;;;;;4415073;32;20065;-65
2021/10/01 01:24:56;;;;;;;0.40;0.40;;;9.60;99.90;;;;;;4414203;32;20065;-65
2021/10/01 01:27:33;;;;;;;0.57;0.45;;;9.60;99.90;;;;;;4401933;32;20082;-65
2021/10/01 01:30:04;;;;;;;0.57;0.57;;;9.60;99.90;;;;;;4414270;32;20531;-65
2021/10/01 01:32:33;;;;;;;0.40;0.40;;;9.60;99.90;;;;;;4415305;32;20078;-65
2021/10/01 01:35:08;;;;;;;0.30;0.30;;;9.50;99.90;;;;;;4414608;32;20172;-65
2021/10/01 01:37:44;;;;;;;0.70;0.45;;;9.50;99.90;;;;;;4401113;32;20062;-65
2021/10/01 01:40:13;;;;;;;0.20;0.20;;;9.50;99.90;;;;;;4385391;32;20070;-65
2021/10/01 01:42:42;;;;;;;0.52;0.50;;;9.50;99.90;;;;;;4399472;32;20128;-65
2021/10/01 01:45:10;;;;;;;0.20;0.20;;;9.60;99.90;;;;;;4398915;32;20527;-65
2021/10/01 01:47:38;;;;;;;0.20;0.20;;;9.60;99.90;;;;;;4399264;32;20120;-65
2021/10/01 01:50:05;;;;;;;4.40;1.05;;;9.60;99.90;;;;;;4398997;32;20111;-65
2021/10/01 01:52:32;;;;;;;0.40;0.40;;;9.50;99.90;;;;;;4399874;32;20070;-65
2021/10/01 01:54:59;;;;;;;0.30;0.30;;;9.60;99.90;;;;;;4399281;32;20078;-65
2021/10/01 01:57:26;;;;;;;0.25;0.25;;;9.60;99.90;;;;;;4398443;32;20082;-65
2021/10/01 01:59:53;;;;;;;2.78;0.60;;;9.50;99.90;;;;;;4399496;32;20136;-65
2021/10/01 02:02:19;;;;;;;0.40;0.40;;;9.40;99.90;;;;;;4399341;32;20074;-65
2021/10/01 02:04:46;;;;;;;2.45;1.17;;;9.40;99.90;;;;;;4398772;32;20467;-65
2021/10/01 02:07:12;;;;;;;0.30;0.30;;;9.30;99.90;;;;;;4398480;32;20107;-65
2021/10/01 02:09:38;;;;;;;6.68;0.52;;;9.30;99.90;;;;;;4400599;32;20546;-65
2021/10/01 02:12:04;;;;;;;5.07;0.55;;;9.30;99.90;;;;;;4414063;32;20065;-65
2021/10/01 02:14:33;;;;;;;0.22;0.22;;;9.30;99.90;;;;;;4400007;32;20066;-65
2021/10/01 02:16:59;;;;;;;0.20;0.20;;;9.20;99.90;;;;;;4413863;32;20060;-65
2021/10/01 02:19:30;;;;;;;0.30;0.30;;;9.10;99.90;;;;;;4414691;32;20078;-65
2021/10/01 02:21:56;;;;;;;0.30;0.30;;;9.10;99.90;;;;;;4413987;32;20069;-65
2021/10/01 02:24:27;;;;;;;0.35;0.35;;;9.00;99.90;;;;;;4414379;32;20077;-65
2021/10/01 02:27:10;;;;;;;0.93;0.60;;;9.00;99.90;;;;;;4412633;32;20136;-65
2021/10/01 02:29:42;;;;;;;0.40;0.40;;;9.00;99.90;;;;;;4414014;32;20112;-65
2021/10/01 02:32:17;;;;;;;0.30;0.30;;;9.00;99.90;;;;;;4412080;32;20065;-65
2021/10/01 02:34:45;;;;;;;0.30;0.30;;;9.00;99.90;;;;;;4414794;32;20458;-65
2021/10/01 02:37:11;;;;;;;0.37;0.37;;;9.00;99.90;;;;;;4403731;32;20077;-65
2021/10/01 02:39:39;;;;;;;0.37;0.30;;;9.10;99.90;;;;;;4398052;32;20105;-65
2021/10/01 02:42:05;;;;;;;0.28;0.28;;;9.00;99.90;;;;;;4398517;32;20695;-65
2021/10/01 02:44:32;;;;;;;0.70;0.70;;;9.00;99.90;;;;;;4399013;32;20495;-65
2021/10/01 02:46:57;;;;;;;0.10;0.10;;;8.90;99.90;;;;;;4397630;32;20086;-65
2021/10/01 02:49:23;;;;;;;0.60;0.60;;;8.90;99.90;;;;;;4398752;32;20129;-65
2021/10/01 02:51:53;;;;;;;1.73;0.75;;;9.00;99.90;;;;;;4397939;32;20062;-65
2021/10/01 02:54:27;;;;;;;0.20;0.20;;;8.90;99.90;;;;;;4397698;32;20066;-65
2021/10/01 02:56:59;;;;;;;1.30;0.95;;;8.90;99.90;;;;;;4399191;32;20078;-65
2021/10/01 02:59:28;;;;;;;0.30;0.30;;;8.90;99.90;;;;;;4397747;32;20525;-65
2021/10/01 03:01:55;;;;;;;0.30;0.30;;;8.90;99.90;;;;;;4398676;32;20062;-65
2021/10/01 03:04:24;;;;;;;0.50;0.32;;;8.80;99.90;;;;;;4397726;32;20062;-65
2021/10/01 03:06:51;;;;;;;0.80;0.40;;;8.90;99.90;;;;;;4398190;32;20074;-65
2021/10/01 03:09:20;;;;;;;0.30;0.30;;;8.80;99.90;;;;;;4407909;32;20062;-65
2021/10/01 03:11:46;;;;;;;0.30;0.30;;;8.80;99.90;;;;;;4412703;32;20078;-65
2021/10/01 03:14:15;;;;;;;0.40;0.40;;;8.80;99.90;;;;;;4412586;32;20519;-65
2021/10/01 03:16:42;;;;;;;0.20;0.20;;;8.80;99.90;;;;;;4400919;32;20120;-65
2021/10/01 03:19:08;;;;;;;0.32;0.30;;;8.90;99.90;;;;;;4413598;32;20074;-65
2021/10/01 03:21:35;;;;;;;0.40;0.40;;;8.90;99.90;;;;;;4399187;32;20069;-65
2021/10/01 03:24:02;;;;;;;0.90;0.65;;;8.90;99.90;;;;;;4412615;32;20070;-65
2021/10/01 03:26:29;;;;;;;0.52;0.52;;;8.90;99.90;;;;;;4413425;32;20502;-65
2021/10/01 03:28:55;;;;;;;0.25;0.25;;;8.80;99.90;;;;;;4413496;32;20078;-65
2021/10/01 03:31:24;;;;;;;0.93;0.88;;;8.70;99.90;;;;;;4412593;32;20085;-65
2021/10/01 03:33:49;;;;;;;0.35;0.35;;;8.80;99.90;;;;;;4412266;32;20066;-65
2021/10/01 03:36:15;;;;;;;0.30;0.30;;;8.80;99.90;;;;;;4408218;32;20209;-65
2021/10/01 03:38:40;;;;;;;1.02;0.70;;;8.70;99.90;;;;;;4397422;32;20070;-65
2021/10/01 03:41:06;;;;;;;0.50;0.50;;;8.70;99.90;;;;;;4398471;32;20102;-65
2021/10/01 03:43:32;;;;;;;0.30;0.30;;;8.70;99.90;;;;;;4397228;32;20085;-65
2021/10/01 03:45:58;;;;;;;0.30;0.30;;;8.60;99.90;;;;;;4386813;32;20070;-65
2021/10/01 03:48:25;;;;;;;0.60;0.60;;;8.70;99.90;;;;;;4400762;32;20062;-65
2021/10/01 03:50:51;;;;;;;0.30;0.30;;;8.70;99.90;;;;;;4401252;32;20178;-65
2021/10/01 03:53:17;;;;;;;0.60;0.60;;;8.60;99.90;;;;;;4400486;32;20090;-65
2021/10/01 03:55:42;;;;;;;0.22;0.22;;;8.60;99.90;;;;;;4399792;32;20086;-65
2021/10/01 03:58:08;;;;;;;0.30;0.30;;;8.60;99.90;;;;;;4400603;32;20491;-64
2021/10/01 04:00:34;;;;;;;0.20;0.20;;;8.50;99.90;;;;;;4399231;32;20441;-64
2021/10/01 04:02:59;;;;;;;1.25;0.98;;;8.50;99.90;;;;;;4400816;32;20129;-64
2021/10/01 04:05:25;;;;;;;9.80;1.58;;;8.50;99.90;;;;;;4400709;32;20518;-64
2021/10/01 04:07:51;;;;;;;3.62;0.40;;;8.50;99.90;;;;;;4387525;32;20105;-64
2021/10/01 04:10:16;;;;;;;0.20;0.20;;;8.50;99.90;;;;;;4415280;32;20081;-65
2021/10/01 04:12:43;;;;;;;0.73;0.73;;;8.50;99.90;;;;;;4416101;32;20141;-64
2021/10/01 04:15:09;;;;;;;0.30;0.30;;;8.50;99.90;;;;;;4415263;32;20483;-64
2021/10/01 04:17:34;;;;;;;0.50;0.50;;;8.40;99.90;;;;;;4415354;32;20069;-65
2021/10/01 04:20:00;;;;;;;0.28;0.28;;;8.50;99.90;;;;;;4414725;32;20524;-64
2021/10/01 04:22:26;;;;;;;1.30;0.70;;;8.40;99.90;;;;;;4396270;32;20144;-65
2021/10/01 04:24:52;;;;;;;0.85;0.73;;;8.30;99.90;;;;;;4397733;32;20214;-65
2021/10/01 04:27:18;;;;;;;0.88;0.65;;;8.30;99.90;;;;;;4400333;32;20074;-65
2021/10/01 04:29:44;;;;;;;0.20;0.20;;;8.30;99.90;;;;;;4415437;32;20116;-64
2021/10/01 04:32:11;;;;;;;0.95;0.93;;;8.30;99.90;;;;;;4389193;32;20082;-64
2021/10/01 04:34:51;;;;;;;0.40;0.40;;;8.30;99.90;;;;;;4414614;32;20074;-64
2021/10/01 04:37:17;;;;;;;;;;;8.30;99.90;;;;;;4392063;32;20070;-64
2021/10/01 04:39:43;;;;;;;0.40;0.40;;;8.30;99.90;;;;;;4403051;32;20284;-65
2021/10/01 04:42:08;;;;;;;0.40;0.40;;;8.30;99.90;;;;;;4414283;32;20053;-65
2021/10/01 04:44:34;;;;;;;0.43;0.43;;;8.30;99.90;;;;;;4415787;32;20124;-65
2021/10/01 04:46:59;;;;;;;0.40;0.40;;;8.30;99.90;;;;;;4415169;32;20074;-65
2021/10/01 04:49:25;;;;;;;0.60;0.60;;;8.40;99.90;;;;;;4415381;32;20082;-65
2021/10/01 04:51:50;;;;;;;0.37;0.37;;;8.30;99.90;;;;;;4414206;32;20090;-64
2021/10/01 04:54:16;;;;;;;0.30;0.30;;;8.30;99.90;;;;;;4400740;32;20082;-64
2021/10/01 04:56:41;;;;;;;0.30;0.30;;;8.30;99.90;;;;;;4398825;32;20058;-64
2021/10/01 04:59:07;;;;;;;0.20;0.20;;;8.30;99.90;;;;;;4397564;32;20074;-65
2021/10/01 05:01:32;;;;;;;0.62;0.62;;;8.30;99.90;;;;;;4390925;32;20090;-64
2021/10/01 05:03:58;;;;;;;0.30;0.30;;;8.30;99.90;;;;;;4380577;32;20074;-64
2021/10/01 05:06:23;;;;;;;0.88;0.82;;;8.30;99.90;;;;;;4399123;32;20065;-64
2021/10/01 05:08:49;;;;;;;0.40;0.40;;;8.30;99.90;;;;;;4406058;32;20122;-64
2021/10/01 05:11:14;;;;;;;0.30;0.30;;;8.30;99.90;;;;;;4407932;32;20133;-63
2021/10/01 05:13:40;;;;;;;0.50;0.50;;;8.20;99.90;;;;;;4397054;32;20531;-63
2021/10/01 05:16:05;;;;;;;0.30;0.30;;;8.20;99.90;;;;;;4398662;32;20061;-66
2021/10/01 05:18:31;;;;;;;0.43;0.40;;;8.20;99.90;;;;;;4382111;32;20441;-63
2021/10/01 05:21:02;;;;;;;0.35;0.35;;;8.20;99.90;;;;;;4397307;32;20584;-66
2021/10/01 05:23:29;;;;;;;0.30;0.30;;;8.10;99.90;;;;;;4398153;32;20432;-64
2021/10/01 05:25:55;;;;;;;0.32;0.32;;;8.20;99.90;;;;;;4408669;32;20520;-64
2021/10/01 05:28:20;;;;;;;0.75;0.47;;;8.10;99.90;;;;;;4382189;32;20090;-64
2021/10/01 05:30:46;;;;;;;0.47;0.47;;;8.10;99.90;;;;;;4379802;32;20105;-64
2021/10/01 05:33:13;;;;;;;0.57;0.57;;;8.10;99.90;;;;;;4377685;32;20102;-64
2021/10/01 05:35:43;;;;;;;1.05;0.60;;;8.20;99.90;;;;;;4396312;32;20141;-64
2021/10/01 05:38:10;;;;;;;0.45;0.40;;;8.20;99.90;;;;;;4375554;32;20102;-64
2021/10/01 05:40:39;;;;;;;0.30;0.30;;;8.20;99.90;;;;;;4395909;32;20125;-64
2021/10/01 05:43:05;;;;;;;4.78;0.77;;;8.20;99.90;;;;;;4379654;32;20145;-65
2021/10/01 05:45:31;;;;;;;0.52;0.52;;;8.20;99.90;;;;;;4389198;32;20130;-65
2021/10/01 05:47:57;;;;;;;0.43;0.40;;;8.30;99.90;;;;;;4381671;32;20094;-66
2021/10/01 05:50:26;;;;;;;0.77;0.77;;;8.40;99.90;;;;;;4401422;32;20082;-65
2021/10/01 05:52:58;;;;;;;0.40;0.40;;;8.50;99.90;;;;;;4389410;32;20081;-65
2021/10/01 05:55:24;;;;;;;0.30;0.30;;;8.50;99.90;;;;;;4384023;32;20073;-65
2021/10/01 05:57:50;;;;;;;0.57;0.57;;;8.50;99.90;;;;;;4388690;32;20070;-65
2021/10/01 06:00:16;;;;;;;0.47;0.47;;;8.50;99.90;;;;;;4383169;32;20066;-65
2021/10/01 06:02:43;;;;;;;0.77;0.77;;;8.60;99.90;;;;;;4386706;32;20687;-65
2021/10/01 06:05:10;;;;;;;0.43;0.43;;;8.60;99.90;;;;;;4373193;32;20518;-65
2021/10/01 06:07:36;;;;;;;0.28;0.28;;;8.70;99.90;;;;;;4383188;32;20527;-65
2021/10/01 06:10:03;;;;;;;1.40;1.25;;;8.80;99.90;;;;;;4380784;32;20074;-65
2021/10/01 06:12:28;;;;;;;0.55;0.55;;;8.70;99.90;;;;;;4361593;32;20136;-65
2021/10/01 06:14:54;;;;;;;0.47;0.47;;;8.80;99.90;;;;;;4376684;32;20090;-65
2021/10/01 06:17:19;;;;;;;0.40;0.40;;;8.90;99.90;;;;;;4359513;32;20672;-65
2021/10/01 06:19:45;;;;;;;0.50;0.50;;;8.90;99.90;;;;;;4372010;32;20075;-65
2021/10/01 06:22:12;;;;;;;1.45;0.60;;;8.90;99.90;;;;;;4371286;32;20102;-65
2021/10/01 06:24:38;;;;;;;3.85;0.90;;;9.00;99.90;;;;;;4353960;32;109125;-65
2021/10/01 06:27:05;;;;;;;1.67;0.40;;;9.10;99.90;;;;;;4375551;32;20062;-65
2021/10/01 06:29:31;;;;;;;0.30;0.30;;;9.20;99.90;;;;;;4370375;32;20067;-65
2021/10/01 06:31:57;;;;;;;0.40;0.40;;;9.30;99.90;;;;;;4361710;32;20485;-65
2021/10/01 06:34:22;;;;;;;0.32;0.32;;;9.40;99.90;;;;;;4370087;32;20091;-65
2021/10/01 06:36:48;;;;;;;0.75;0.50;;;9.40;99.90;;;;;;4367628;32;20087;-65
2021/10/01 06:39:13;;;;;;;0.40;0.40;;;9.50;99.90;;;;;;4372505;32;20067;-66
2021/10/01 06:41:41;;;;;;;0.40;0.40;;;9.60;99.90;;;;;;4354715;32;20117;-66
2021/10/01 06:44:08;;;;;;;0.75;0.40;;;9.70;99.90;;;;;;4356857;32;20782;-65
2021/10/01 06:46:58;;;;;;;0.40;0.40;;;9.90;99.90;;;;;;4358458;32;20079;-65
2021/10/01 06:52:18;;;;;;;0.28;0.28;;;10.00;99.90;;;;;;4364938;32;20051;-65
2021/10/01 07:35:25;;;;;;;0.37;0.37;;;10.90;99.90;;;;;;4367955;32;20121;-65
2021/10/01 07:36:36;;;;;;;0.40;0.35;;;10.90;99.90;;;;;;4361144;32;20103;-65
2021/10/01 07:45:21;;;;;;;0.20;0.20;;;11.00;99.90;;;;;;4360987;32;20058;-65
2021/10/01 08:19:09;;;;;;;0.73;0.60;;;12.20;99.90;;;;;;4393085;32;20129;-67
2021/10/01 08:19:41;;;;;;;0.70;0.70;;;12.40;99.90;;;;;;4385812;32;20133;-67
2021/10/01 08:22:09;;;;;;;0.30;0.30;;;12.50;99.90;;;;;;4402875;32;20526;-67
2021/10/01 08:24:35;;;;;;;0.30;0.30;;;12.60;99.90;;;;;;4402150;32;20074;-67
2021/10/01 08:27:02;;;;;;;0.32;0.32;;;12.80;99.90;;;;;;4395096;32;20381;-67
2021/10/01 08:29:27;;;;;;;0.30;0.30;;;12.90;99.90;;;;;;4402824;32;20066;-67
2021/10/01 08:32:00;;;;;;;1.08;0.95;;;12.90;99.90;;;;;;4385738;32;20083;-67
2021/10/01 08:34:27;;;;;;;0.47;0.47;;;13.00;99.90;;;;;;4404234;32;20090;-68
2021/10/01 08:36:53;;;;;;;0.30;0.30;;;13.10;99.90;;;;;;4401146;32;20090;-67
2021/10/01 08:39:19;;;;;;;0.30;0.30;;;13.10;99.90;;;;;;4399198;32;20094;-67
2021/10/01 08:41:44;;;;;;;0.85;0.62;;;13.20;99.90;;;;;;4400153;32;20143;-67
2021/10/01 08:44:10;;;;;;;0.37;0.37;;;13.20;99.90;;;;;;4403739;32;20180;-67
2021/10/01 08:46:36;;;;;;;0.60;0.60;;;13.30;99.90;;;;;;4399762;32;20079;-67
2021/10/01 08:49:06;;;;;;;2.45;0.70;;;13.40;99.90;;;;;;4402806;32;20070;-67
2021/10/01 08:51:32;;;;;;;0.30;0.30;;;13.40;99.90;;;;;;4400904;32;20502;-67
2021/10/01 08:53:58;;;;;;;0.40;0.40;;;13.50;99.90;;;;;;4402370;32;20407;-67
2021/10/01 08:56:25;;;;;;;1.75;0.80;;;13.50;99.90;;;;;;4397373;32;20090;-67
2021/10/01 08:58:50;;;;;;;0.20;0.20;;;13.50;99.90;;;;;;4379928;32;20110;-67
2021/10/01 09:01:16;;;;;;;0.30;0.30;;;13.60;99.90;;;;;;4390501;32;20630;-67
2021/10/01 09:03:43;;;;;;;0.30;0.30;;;13.70;99.90;;;;;;4392569;32;20106;-67
2021/10/01 09:06:09;;;;;;;0.50;0.50;;;13.80;99.90;;;;;;4381825;32;20077;-67
2021/10/01 09:08:48;;;;;;;0.45;0.45;;;13.90;99.90;;;;;;4382829;32;20121;-67
2021/10/01 09:11:14;;;;;;;0.40;0.40;;;14.00;99.90;;;;;;4394662;32;20133;-67
2021/10/01 09:13:41;;;;;;;0.40;0.40;;;14.10;99.90;;;;;;4393472;32;20078;-67
2021/10/01 09:16:09;;;;;;;0.37;0.37;;;14.20;99.90;;;;;;4381929;32;20085;-67
2021/10/01 09:18:37;;;;;;;0.30;0.30;;;14.10;99.90;;;;;;4403111;32;20506;-67
2021/10/01 09:21:08;;;;;;;0.52;0.52;;;14.00;99.90;;;;;;4397807;32;20083;-67
2021/10/01 09:23:40;;;;;;;0.40;0.40;;;14.00;99.90;;;;;;4393037;32;20098;-66
2021/10/01 09:26:12;;;;;;;0.40;0.40;;;14.10;99.90;;;;;;4383036;32;20173;-67
2021/10/01 09:28:49;;;;;;;0.55;0.55;;;14.20;99.90;;;;;;4399015;32;20085;-66
2021/10/01 09:31:35;;;;;;;0.30;0.30;;;14.30;99.90;;;;;;4399891;32;20082;-67
2021/10/01 09:34:03;;;;;;;0.32;0.32;;;14.50;99.90;;;;;;4388841;32;20094;-67
2021/10/01 09:36:29;;;;;;;0.43;0.43;;;14.70;99.90;;;;;;4388427;32;20119;-67
2021/10/01 09:38:57;;;;;;;0.30;0.30;;;14.70;99.90;;;;;;4403822;32;20090;-66
2021/10/01 09:41:25;;;;;;;0.40;0.40;;;14.80;99.90;;;;;;4401021;32;20455;-66
2021/10/01 09:44:14;;;;;;;0.50;0.50;;;14.90;99.90;;;;;;4398583;32;20806;-66
2021/10/01 09:46:47;;;;;;;0.30;0.30;;;15.00;99.90;;;;;;4375209;32;20097;-66
2021/10/01 09:49:15;;;;;;;0.65;0.55;;;15.00;99.90;;;;;;4401113;32;20101;-67
2021/10/01 09:51:51;;;;;;;0.30;0.30;;;15.10;99.90;;;;;;4395579;32;20061;-66
2021/10/01 09:54:19;;;;;;;0.35;0.35;;;15.20;99.90;;;;;;4399703;32;20577;-67
2021/10/01 09:56:45;;;;;;;0.30;0.30;;;15.20;99.90;;;;;;4397638;32;20085;-66
2021/10/01 09:59:16;;;;;;;0.30;0.30;;;15.30;99.90;;;;;;4400687;32;20133;-66
2021/10/01 10:02:03;;;;;;;0.40;0.40;;;15.40;99.90;;;;;;4405198;32;20576;-67
2021/10/01 10:04:34;;;;;;;0.30;0.30;;;15.40;99.90;;;;;;4404128;32;20086;-66
2021/10/01 10:07:08;;;;;;;0.30;0.30;;;15.50;99.90;;;;;;4383102;32;20401;-67
2021/10/01 10:09:36;;;;;;;0.30;0.30;;;15.60;99.90;;;;;;4399267;32;20094;-67
2021/10/01 10:12:02;;;;;;;2.53;0.73;;;15.70;99.90;;;;;;4396124;32;20068;-67
2021/10/01 10:14:32;;;;;;;0.55;0.52;;;15.80;99.90;;;;;;4401468;32;20217;-67
2021/10/01 10:16:59;;;;;;;0.40;0.40;;;15.90;99.90;;;;;;4383639;32;20082;-67
2021/10/01 10:19:30;;;;;;;1.17;0.50;;;15.90;99.90;;;;;;4382693;32;20066;-67
2021/10/01 10:21:55;;;;;;;0.50;0.50;;;15.90;99.90;;;;;;4398232;32;20095;-67
2021/10/01 10:24:21;;;;;;;0.40;0.40;;;16.00;99.90;;;;;;4381418;32;20089;-68
2021/10/01 10:26:47;;;;;;;0.30;0.30;;;16.00;99.90;;;;;;4404275;32;20062;-67
2021/10/01 10:29:13;;;;;;;0.52;0.30;;;16.10;99.90;;;;;;4406039;32;20070;-67
2021/10/01 10:31:43;;;;;;;0.20;0.20;;;16.20;99.90;;;;;;4398223;32;20133;-67
2021/10/01 10:34:23;;;;;;;0.40;0.40;;;16.20;99.90;;;;;;4400583;32;20098;-67
2021/10/01 10:36:58;;;;;;;0.30;0.30;;;16.30;99.90;;;;;;4399246;32;20082;-68
2021/10/01 10:39:32;;;;;;;0.30;0.30;;;16.40;99.90;;;;;;4398344;32;20085;-68
2021/10/01 10:42:01;;;;;;;0.30;0.30;;;16.40;99.90;;;;;;4403209;32;20146;-68
2021/10/01 10:44:49;;;;;;;0.40;0.40;;;16.50;99.90;;;;;;4397852;32;20098;-68
2021/10/01 10:47:39;;;;;;;0.50;0.50;;;16.60;99.90;;;;;;4388736;32;20244;-68
2021/10/01 10:50:26;;;;;;;0.30;0.30;;;16.70;99.90;;;;;;4387189;32;20089;-68
2021/10/01 10:53:11;;;;;;;0.30;0.30;;;16.90;99.90;;;;;;4386129;32;20101;-68
2021/10/01 10:55:56;;;;;;;0.40;0.40;;;16.90;99.90;;;;;;4397545;32;20122;-68
2021/10/01 10:58:25;;;;;;;0.30;0.30;;;17.00;99.90;;;;;;4401715;32;20070;-68
2021/10/01 11:01:06;;;;;;;0.30;0.30;;;17.00;99.90;;;;;;4392732;32;20144;-68
2021/10/01 11:03:33;;;;;;;0.30;0.30;;;17.00;99.90;;;;;;4398316;32;20343;-68
2021/10/01 11:06:15;;;;;;;0.45;0.45;;;17.00;99.90;;;;;;4395235;32;20144;-68
2021/10/01 11:08:44;;;;;;;0.40;0.40;;;17.10;99.90;;;;;;4395201;32;20101;-68
2021/10/01 11:11:34;;;;;;;0.30;0.30;;;17.20;99.90;;;;;;4398106;32;20077;-68
2021/10/01 11:14:18;;;;;;;0.30;0.30;;;17.30;99.90;;;;;;4387660;32;20085;-68
2021/10/01 11:17:06;;;;;;;0.30;0.30;;;17.60;99.90;;;;;;4400348;32;20294;-68
2021/10/01 11:19:38;;;;;;;0.50;0.50;;;17.80;99.90;;;;;;4391577;32;20492;-68
2021/10/01 11:22:29;;;;;;;0.40;0.40;;;18.10;99.90;;;;;;4399416;32;20369;-68
2021/10/01 11:25:02;;;;;;;0.30;0.30;;;18.50;99.90;;;;;;4397074;32;20082;-68
2021/10/01 11:27:28;;;;;;;0.30;0.30;;;18.80;99.90;;;;;;4398852;32;20081;-68
2021/10/01 11:29:54;;;;;;;0.50;0.50;;;19.00;99.90;;;;;;4402473;32;20107;-67
2021/10/01 11:32:22;;;;;;;0.55;0.55;;;19.30;98.90;;;;;;4401253;32;20477;-67
2021/10/01 11:34:55;;;;;;;0.30;0.30;;;19.20;98.50;;;;;;4401405;32;20082;-68
2021/10/01 11:37:30;;;;;;;0.75;0.75;;;19.10;98.00;;;;;;4397668;32;20093;-68
2021/10/01 11:39:58;;;;;;;0.20;0.20;;;19.20;98.30;;;;;;4391665;32;20094;-68
2021/10/01 11:42:28;;;;;;;0.20;0.20;;;19.50;98.30;;;;;;4399110;32;20082;-68
2021/10/01 11:44:56;;;;;;;0.20;0.20;;;19.70;96.90;;;;;;4396424;32;20589;-68
2021/10/01 11:47:23;;;;;;;0.30;0.30;;;19.90;97.20;;;;;;4399623;32;20066;-68
2021/10/01 11:49:58;;;;;;;0.30;0.30;;;20.30;96.10;;;;;;4406493;32;20420;-68
2021/10/01 11:52:27;;;;;;;3.03;0.88;;;20.20;95.80;;;;;;4406343;32;20070;-69
2021/10/01 11:54:56;;;;;;;0.30;0.28;;;20.60;96.10;;;;;;4403425;32;20090;-68
2021/10/01 11:57:22;;;;;;;0.20;0.20;;;20.90;94.80;;;;;;4399959;32;20086;-69
2021/10/01 11:59:57;;;;;;;0.20;0.20;;;21.00;94.50;;;;;;4400911;32;20083;-69
2021/10/01 12:02:35;;;;;;;0.30;0.30;;;21.00;94.20;;;;;;4406359;32;20074;-68
2021/10/01 12:05:22;;;;;;;0.20;0.20;;;21.40;93.90;;;;;;4401394;32;20189;-68
2021/10/01 12:07:50;;;;;;;0.90;0.37;;;21.80;93.40;;;;;;4415010;32;20507;-68
2021/10/01 12:10:17;;;;;;;0.10;0.10;;;22.00;91.80;;;;;;4400492;32;20132;-68
2021/10/01 12:13:01;;;;;;;0.25;0.25;;;22.20;91.70;;;;;;4412434;32;20073;-68
2021/10/01 12:15:40;;;;;;;1.42;0.20;;;22.40;91.10;;;;;;4410273;32;20089;-69
2021/10/01 12:18:08;;;;;;;0.15;0.15;;;22.60;90.60;;;;;;4412151;32;20066;-69
2021/10/01 12:20:49;;;;;;;0.20;0.20;;;22.70;90.00;;;;;;4402166;32;20368;-69
2021/10/01 12:23:20;;;;;;;0.10;0.10;;;22.60;89.90;;;;;;4400746;32;20098;-68
2021/10/01 12:25:45;;;;;;;0.20;0.20;;;22.70;90.00;;;;;;4399449;32;20554;-68
2021/10/01 12:28:11;;;;;;;0.20;0.20;;;22.80;89.60;;;;;;4410669;32;20096;-68
2021/10/01 12:30:36;;;;;;;0.13;0.13;;;23.00;88.50;;;;;;4398489;32;20512;-68
2021/10/01 12:33:02;;;;;;;0.20;0.20;;;22.80;87.80;;;;;;4404153;32;20151;-68
2021/10/01 12:35:28;;;;;;;0.20;0.20;;;23.10;88.40;;;;;;4406890;32;20066;-67
2021/10/01 12:37:54;;;;;;;0.15;0.15;;;23.20;86.60;;;;;;4406275;32;20089;-67
2021/10/01 12:40:19;;;;;;;0.47;0.47;;;23.20;87.50;;;;;;4422133;32;20231;-69
2021/10/01 12:42:51;;;;;;;0.45;0.45;;;23.20;86.50;;;;;;4402456;32;20437;-69
2021/10/01 12:45:19;;;;;;;0.32;0.17;;;23.20;86.20;;;;;;4396610;32;20092;-69
2021/10/01 12:47:47;;;;;;;0.10;0.10;;;23.30;86.50;;;;;;4400028;32;20086;-68
2021/10/01 12:50:16;;;;;;;0.20;0.20;;;23.40;86.20;;;;;;4407811;32;20086;-68
2021/10/01 12:52:44;;;;;;;0.05;0.05;;;23.10;83.70;;;;;;4423588;32;20073;-68
2021/10/01 12:55:13;;;;;;;7.82;1.15;;;22.50;82.90;;;;;;4415355;32;20116;-69
2021/10/01 12:57:40;;;;;;;0.20;0.20;;;22.20;85.40;;;;;;4418439;32;20086;-68
2021/10/01 13:00:10;;;;;;;1.75;0.75;;;21.80;85.20;;;;;;4426378;32;20070;-69
2021/10/01 13:02:39;;;;;;;0.85;0.20;;;21.50;85.40;;;;;;4425969;32;20432;-69
2021/10/01 13:05:07;;;;;;;0.20;0.20;;;21.20;86.10;;;;;;4412524;32;20113;-67
2021/10/01 13:07:37;;;;;;;0.32;0.32;;;20.90;86.20;;;;;;4403377;32;20074;-67
2021/10/01 13:10:07;;;;;;;0.20;0.20;;;20.70;87.40;;;;;;4403472;32;20085;-67
2021/10/01 13:12:38;;;;;;;0.32;0.32;;;20.30;88.10;;;;;;4398446;32;20573;-67
2021/10/01 13:15:11;;;;;;;0.50;0.50;;;20.00;87.40;;;;;;4390177;32;20099;-66
2021/10/01 13:17:37;;;;;;;1.27;0.50;;;19.90;90.20;;;;;;4413588;32;20559;-67
2021/10/01 13:20:03;;;;;;;0.30;0.30;;;20.10;90.00;;;;;;4415750;32;20050;-67
2021/10/01 13:23:00;;;;;;;0.30;0.30;;;20.10;89.10;;;;;;4410361;32;20105;-67
2021/10/01 13:25:28;;;;;;;0.50;0.50;;;19.90;90.80;;;;;;4407391;32;20070;-67
2021/10/01 13:27:55;;;;;;;0.20;0.20;;;19.90;89.70;;;;;;4414293;32;20514;-67
2021/10/01 13:30:21;;;;;;;0.30;0.30;;;19.90;90.70;;;;;;4411658;32;20074;-66
2021/10/01 13:32:48;;;;;;;0.25;0.25;;;20.00;89.80;;;;;;4417274;32;20522;-67
2021/10/01 13:35:15;;;;;;;0.25;0.25;;;20.00;91.20;;;;;;4411135;32;20079;-67
2021/10/01 13:37:44;;;;;;;0.20;0.20;;;19.90;89.10;;;;;;4413591;32;20065;-67
2021/10/01 13:40:11;;;;;;;0.30;0.30;;;19.90;89.20;;;;;;4423861;32;20078;-67
2021/10/01 13:42:36;;;;;;;0.30;0.30;;;19.90;90.30;;;;;;4411494;32;20086;-67
2021/10/01 13:45:03;;;;;;;1.10;0.30;;;20.10;90.30;;;;;;4412196;32;20069;-67
2021/10/01 13:47:31;;;;;;;0.28;0.28;;;20.50;90.30;;;;;;4424810;32;20077;-67
2021/10/01 13:49:58;;;;;;;0.30;0.30;;;20.80;88.90;;;;;;4410204;32;20432;-67
2021/10/01 13:52:23;;;;;;;0.20;0.20;;;20.70;89.40;;;;;;4398433;32;20090;-67
2021/10/01 13:54:49;;;;;;;0.30;0.30;;;21.00;90.00;;;;;;4420940;32;20522;-67
2021/10/01 13:57:14;;;;;;;0.25;0.25;;;20.80;85.40;;;;;;4419237;32;20077;-67
2021/10/01 13:59:41;;;;;;;0.47;0.47;;;20.40;87.50;;;;;;4412285;32;20069;-67
2021/10/01 14:02:06;;;;;;;0.20;0.20;;;20.20;88.00;;;;;;4410816;32;20140;-67
2021/10/01 14:04:32;;;;;;;0.30;0.30;;;19.80;89.20;;;;;;4410419;32;20121;-67
2021/10/01 14:06:57;;;;;;;0.20;0.20;;;19.60;89.80;;;;;;4420201;32;20447;-67
2021/10/01 14:09:23;;;;;;;0.40;0.40;;;19.50;89.50;;;;;;4426391;32;20065;-67
2021/10/01 14:11:48;;;;;;;0.25;0.25;;;19.40;90.20;;;;;;4426082;32;20082;-67
2021/10/01 14:14:14;;;;;;;0.28;0.28;;;19.30;90.50;;;;;;4425636;32;20081;-67
2021/10/01 14:16:39;;;;;;;0.37;0.37;;;19.20;91.20;;;;;;4425538;32;20439;-67
2021/10/01 14:19:05;;;;;;;0.30;0.30;;;19.20;90.70;;;;;;4424128;32;20074;-67